createdAt,value
2023-03-12T00:00:04.534Z,82.42
2023-03-12T00:02:31.033Z,81.74
2023-03-12T00:04:59.874Z,82.87
2023-03-12T00:07:26.387Z,83.07
2023-03-12T00:09:52.956Z,83.10
2023-03-12T00:12:19.307Z,83.70
2023-03-12T00:14:45.826Z,82.87
2023-03-12T00:17:15.458Z,83.78
2023-03-12T00:19:41.866Z,82.60
2023-03-12T00:22:08.543Z,83.22
2023-03-12T00:24:34.945Z,83.19
2023-03-12T00:27:01.372Z,83.99
2023-03-12T00:29:27.924Z,83.89
2023-03-12T00:31:54.622Z,83.16
2023-03-12T00:34:21.053Z,84.41
2023-03-12T00:36:47.535Z,84.30
2023-03-12T00:39:16.357Z,84.62
2023-03-12T00:41:42.911Z,83.38
2023-03-12T00:44:11.636Z,84.00
2023-03-12T00:46:38.187Z,84.03
2023-03-12T00:49:04.857Z,84.91
2023-03-12T00:51:31.712Z,83.74
2023-03-12T00:53:58.196Z,84.21
2023-03-12T00:56:24.569Z,85.39
2023-03-12T00:58:50.983Z,86.06
2023-03-12T01:01:17.757Z,83.89
2023-03-12T01:03:44.321Z,84.35
2023-03-12T01:06:10.954Z,84.77
2023-03-12T01:08:37.985Z,84.28
2023-03-12T01:11:04.770Z,84.56
2023-03-12T01:13:31.397Z,85.65
2023-03-12T01:16:00.223Z,85.70
2023-03-12T01:18:26.896Z,85.26
2023-03-12T01:20:53.973Z,84.89
2023-03-12T01:23:22.689Z,84.38
2023-03-12T01:25:49.465Z,84.62
2023-03-12T01:28:18.212Z,83.72
2023-03-12T01:30:44.980Z,82.95
2023-03-12T01:33:11.404Z,83.14
2023-03-12T01:35:39.494Z,82.79
2023-03-12T01:38:14.252Z,83.50
2023-03-12T01:40:42.859Z,83.00
2023-03-12T01:43:37.000Z,84.12
2023-03-12T01:46:28.038Z,83.36
2023-03-12T01:49:11.503Z,83.92
2023-03-12T01:51:52.487Z,83.29
2023-03-12T01:54:32.523Z,82.90
2023-03-12T01:57:00.572Z,83.57
2023-03-12T01:59:37.146Z,83.37
2023-03-12T02:02:05.417Z,83.70
2023-03-12T02:04:33.463Z,83.86
2023-03-12T02:07:12.819Z,83.21
2023-03-12T02:09:43.555Z,82.87
2023-03-12T02:12:10.228Z,82.69
2023-03-12T02:14:37.735Z,82.74
2023-03-12T02:17:05.224Z,83.05
2023-03-12T02:19:45.009Z,83.10
2023-03-12T02:22:15.232Z,82.96
2023-03-12T02:24:57.293Z,83.01
2023-03-12T02:27:26.320Z,82.94
2023-03-12T02:29:52.780Z,83.51
2023-03-12T02:32:29.468Z,83.15
2023-03-12T02:34:57.280Z,82.78
2023-03-12T02:37:23.627Z,82.96
2023-03-12T02:39:58.148Z,82.66
2023-03-12T02:42:24.925Z,82.47
2023-03-12T02:44:51.466Z,82.41
2023-03-12T02:47:18.113Z,82.47
2023-03-12T02:49:44.598Z,82.02
2023-03-12T02:52:10.968Z,83.39
2023-03-12T02:54:37.817Z,81.91
2023-03-12T02:57:04.349Z,81.75
2023-03-12T02:59:31.092Z,81.42
2023-03-12T03:02:00.299Z,81.66
2023-03-12T03:04:27.958Z,81.70
2023-03-12T03:06:54.613Z,81.51
2023-03-12T03:09:22.473Z,81.06
2023-03-12T03:11:50.604Z,82.13
2023-03-12T03:14:17.463Z,80.67
2023-03-12T03:16:44.027Z,80.74
2023-03-12T03:19:11.410Z,80.99
2023-03-12T03:21:37.980Z,80.61
2023-03-12T03:24:05.071Z,79.96
2023-03-12T03:26:31.544Z,79.89
2023-03-12T03:28:58.021Z,80.66
2023-03-12T03:31:27.196Z,80.47
2023-03-12T03:33:53.711Z,79.87
2023-03-12T03:36:20.308Z,80.02
2023-03-12T03:38:49.439Z,80.18
2023-03-12T03:41:17.690Z,80.83
2023-03-12T03:43:46.738Z,80.73
2023-03-12T03:46:14.593Z,80.20
2023-03-12T03:48:42.364Z,79.86
2023-03-12T03:51:10.581Z,78.96
2023-03-12T03:53:37.055Z,78.59
2023-03-12T03:56:16.730Z,78.51
2023-03-12T03:58:44.160Z,78.62
2023-03-12T04:01:12.647Z,78.74
2023-03-12T04:03:41.513Z,80.33
2023-03-12T04:06:08.578Z,80.31
2023-03-12T04:08:37.203Z,78.96
2023-03-12T04:11:08.876Z,79.00
2023-03-12T04:13:35.752Z,80.33
2023-03-12T04:16:02.326Z,80.22
2023-03-12T04:18:32.273Z,79.69
2023-03-12T04:20:58.741Z,79.14
2023-03-12T04:23:25.129Z,79.36
2023-03-12T04:25:51.545Z,79.25
2023-03-12T04:28:17.971Z,78.80
2023-03-12T04:30:44.378Z,77.89
2023-03-12T04:33:11.007Z,78.09
2023-03-12T04:35:39.818Z,78.04
2023-03-12T04:38:06.195Z,77.30
2023-03-12T04:40:32.680Z,77.23
2023-03-12T04:42:59.232Z,76.26
2023-03-12T04:45:25.809Z,76.08
2023-03-12T04:47:57.705Z,76.54
2023-03-12T04:50:24.230Z,76.78
2023-03-12T04:52:50.721Z,75.50
2023-03-12T04:55:17.126Z,76.60
2023-03-12T04:57:43.648Z,75.43
2023-03-12T05:00:13.060Z,74.84
2023-03-12T05:02:41.104Z,75.59
2023-03-12T05:05:10.772Z,74.88
2023-03-12T05:07:37.259Z,75.25
2023-03-12T05:10:04.293Z,77.74
2023-03-12T05:12:30.745Z,76.87
2023-03-12T05:14:59.705Z,78.69
2023-03-12T05:17:26.077Z,77.97
2023-03-12T05:19:52.650Z,78.50
2023-03-12T05:22:19.057Z,81.92
2023-03-12T05:24:45.486Z,81.97
2023-03-12T05:27:11.932Z,81.05
2023-03-12T05:29:38.818Z,81.30
2023-03-12T05:32:07.501Z,80.80
2023-03-12T05:34:34.804Z,81.81
2023-03-12T05:37:01.290Z,82.72
2023-03-12T05:39:27.741Z,81.92
2023-03-12T05:41:56.983Z,83.36
2023-03-12T05:44:24.734Z,83.33
2023-03-12T05:46:52.233Z,84.52
2023-03-12T05:49:19.607Z,85.32
2023-03-12T05:51:50.542Z,85.51
2023-03-12T05:54:17.661Z,86.47
2023-03-12T05:56:46.459Z,86.44
2023-03-12T05:59:12.983Z,85.91
2023-03-12T06:01:42.424Z,87.11
2023-03-12T06:04:08.831Z,88.38
2023-03-12T06:06:39.088Z,89.73
2023-03-12T06:09:05.823Z,90.97
2023-03-12T06:11:34.615Z,92.29
2023-03-12T06:14:01.497Z,93.49
2023-03-12T06:16:30.959Z,94.08
2023-03-12T06:19:00.623Z,92.62
2023-03-12T06:21:32.896Z,93.77
2023-03-12T06:24:03.268Z,94.12
2023-03-12T06:26:30.275Z,94.03
2023-03-12T06:28:57.123Z,95.40
2023-03-12T06:31:24.564Z,94.60
2023-03-12T06:33:53.892Z,96.00
2023-03-12T06:36:25.525Z,94.54
2023-03-12T06:38:52.127Z,95.38
2023-03-12T06:41:20.506Z,95.47
2023-03-12T06:43:48.184Z,94.90
2023-03-12T06:46:17.552Z,95.97
2023-03-12T06:48:46.184Z,94.50
2023-03-12T06:51:14.685Z,94.72
2023-03-12T06:53:42.638Z,95.06
2023-03-12T06:56:10.286Z,94.69
2023-03-12T06:58:36.965Z,94.94
2023-03-12T07:01:04.555Z,93.50
2023-03-12T07:03:31.182Z,94.07
2023-03-12T07:06:01.082Z,94.50
2023-03-12T07:08:31.149Z,94.88
2023-03-12T07:11:01.620Z,94.72
2023-03-12T07:13:28.811Z,95.29
2023-03-12T07:15:55.291Z,95.64
2023-03-12T07:18:21.769Z,94.75
2023-03-12T07:20:48.353Z,94.35
2023-03-12T07:23:17.107Z,93.97
2023-03-12T07:25:44.612Z,94.38
2023-03-12T07:28:12.384Z,94.18
2023-03-12T07:30:39.318Z,93.17
2023-03-12T07:33:10.284Z,93.70
2023-03-12T07:35:38.856Z,93.68
2023-03-12T07:38:06.028Z,93.57
2023-03-12T07:40:32.645Z,94.31
2023-03-12T07:42:59.264Z,93.95
2023-03-12T07:45:25.908Z,94.47
2023-03-12T07:47:52.557Z,94.54
2023-03-12T07:50:20.039Z,95.57
2023-03-12T07:52:47.096Z,95.29
2023-03-12T07:55:14.135Z,96.96
2023-03-12T07:57:40.827Z,96.49
2023-03-12T08:00:10.316Z,95.57
2023-03-12T08:02:39.198Z,96.14
2023-03-12T08:05:06.507Z,96.55
2023-03-12T08:07:35.926Z,95.71
2023-03-12T08:10:04.549Z,95.65
2023-03-12T08:12:31.561Z,94.66
2023-03-12T08:14:57.960Z,95.02
2023-03-12T08:17:24.880Z,93.26
2023-03-12T08:19:51.689Z,94.45
2023-03-12T08:22:18.177Z,93.91
2023-03-12T08:24:46.909Z,92.25
2023-03-12T08:27:13.777Z,91.28
2023-03-12T08:29:40.989Z,91.25
2023-03-12T08:32:08.222Z,90.79
2023-03-12T08:34:35.494Z,90.95
2023-03-12T08:37:02.955Z,92.03
2023-03-12T08:39:29.675Z,91.99
2023-03-12T08:41:56.155Z,91.03
2023-03-12T08:44:23.619Z,91.78
2023-03-12T08:46:52.848Z,91.22
2023-03-12T08:49:20.534Z,91.07
2023-03-12T08:51:47.902Z,92.17
2023-03-12T08:54:14.537Z,92.36
2023-03-12T08:56:43.904Z,93.24
2023-03-12T08:59:11.561Z,93.45
2023-03-12T09:01:38.337Z,94.08
2023-03-12T09:04:06.258Z,94.89
2023-03-12T09:06:35.249Z,94.35
2023-03-12T09:09:05.088Z,94.17
2023-03-12T09:11:33.903Z,95.09
2023-03-12T09:16:48.283Z,93.85
2023-03-12T09:19:15.798Z,94.72
2023-03-12T09:21:42.363Z,93.55
2023-03-12T09:24:10.517Z,93.80
2023-03-12T09:26:36.920Z,93.50
2023-03-12T09:29:03.410Z,93.61
2023-03-12T09:31:29.883Z,94.58
2023-03-12T09:33:56.305Z,94.26
2023-03-12T09:36:23.123Z,94.13
2023-03-12T09:38:49.632Z,93.31
2023-03-12T09:41:21.101Z,94.24
2023-03-12T09:44:02.291Z,93.34
2023-03-12T09:46:48.904Z,94.50
2023-03-12T09:49:27.233Z,94.46
2023-03-12T09:51:57.120Z,94.24
2023-03-12T09:54:45.852Z,93.08
2023-03-12T09:57:21.702Z,93.69
2023-03-12T09:59:48.251Z,94.00
2023-03-12T10:02:53.090Z,92.79
2023-03-12T10:05:39.663Z,92.66
2023-03-12T10:08:35.817Z,92.63
2023-03-12T10:11:18.501Z,91.80
2023-03-12T10:13:53.868Z,91.58
2023-03-12T10:16:40.248Z,90.59
2023-03-12T10:19:28.065Z,90.66
2023-03-12T10:21:57.489Z,89.49
2023-03-12T10:24:39.148Z,89.43
2023-03-12T10:27:13.468Z,89.34
2023-03-12T10:29:44.908Z,90.17
2023-03-12T10:32:16.643Z,89.68
2023-03-12T10:34:45.787Z,88.65
2023-03-12T10:37:21.614Z,88.31
2023-03-12T10:39:51.695Z,89.32
2023-03-12T10:42:21.285Z,86.35
2023-03-12T10:44:52.203Z,85.45
2023-03-12T10:47:37.989Z,85.17
2023-03-12T10:50:45.948Z,86.54
2023-03-12T10:53:12.696Z,86.63
2023-03-12T10:55:39.744Z,84.67
2023-03-12T10:58:06.267Z,84.29
2023-03-12T11:00:33.644Z,84.00
2023-03-12T11:03:08.134Z,85.01
2023-03-12T11:05:45.785Z,85.11
2023-03-12T11:08:32.175Z,85.03
2023-03-12T11:11:00.588Z,85.13
2023-03-12T11:13:33.213Z,84.79
2023-03-12T11:16:02.888Z,84.43
2023-03-12T11:18:32.560Z,84.14
2023-03-12T11:21:14.962Z,84.39
2023-03-12T11:24:08.377Z,84.75
2023-03-12T11:26:44.731Z,85.53
2023-03-12T11:29:33.252Z,85.93
2023-03-12T11:32:26.276Z,85.14
2023-03-12T11:34:53.075Z,85.40
2023-03-12T11:37:53.773Z,83.39
2023-03-12T11:40:26.328Z,82.55
2023-03-12T11:43:09.044Z,82.74
2023-03-12T11:46:08.607Z,82.35
2023-03-12T11:48:45.939Z,82.40
2023-03-12T11:51:33.524Z,81.02
2023-03-12T11:54:55.827Z,80.32
2023-03-12T11:57:27.222Z,79.29
2023-03-12T12:00:13.140Z,77.80
2023-03-12T12:02:54.919Z,78.15
2023-03-12T12:05:36.568Z,76.63
2023-03-12T12:08:39.094Z,76.66
2023-03-12T12:11:08.312Z,76.58
2023-03-12T12:13:59.690Z,76.86
2023-03-12T12:17:17.341Z,75.48
2023-03-12T12:20:01.390Z,75.71
2023-03-12T12:22:50.025Z,75.57
2023-03-12T12:25:46.666Z,76.18
2023-03-12T12:28:26.807Z,76.60
2023-03-12T12:31:19.496Z,76.57
2023-03-12T12:33:56.100Z,76.91
2023-03-12T12:36:27.339Z,76.70
2023-03-12T12:39:01.377Z,77.04
2023-03-12T12:41:37.316Z,77.57
2023-03-12T12:44:14.058Z,74.83
2023-03-12T12:46:47.829Z,74.98
2023-03-12T12:49:17.504Z,75.41
2023-03-12T12:51:50.668Z,76.41
2023-03-12T12:54:47.997Z,76.40
2023-03-12T12:57:22.515Z,76.85
2023-03-12T13:00:07.477Z,77.79
2023-03-12T13:02:39.628Z,76.75
2023-03-12T13:05:20.181Z,76.61
2023-03-12T13:07:46.656Z,75.98
2023-03-12T13:10:33.268Z,75.38
2023-03-12T13:13:04.292Z,76.82
2023-03-12T13:15:32.838Z,76.66
2023-03-12T13:17:59.299Z,76.41
2023-03-12T13:20:50.259Z,76.73
2023-03-12T13:23:44.826Z,75.68
2023-03-12T13:26:27.636Z,75.26
2023-03-12T13:29:12.391Z,74.78
2023-03-12T13:31:40.844Z,74.42
2023-03-12T13:34:19.426Z,74.04
2023-03-12T13:36:51.848Z,73.25
2023-03-12T13:39:28.465Z,70.47
2023-03-12T13:41:55.973Z,71.14
2023-03-12T13:44:37.179Z,69.55
2023-03-12T13:47:41.898Z,68.44
2023-03-12T13:50:14.316Z,66.60
2023-03-12T13:52:40.787Z,67.29
2023-03-12T13:55:17.748Z,64.94
2023-03-12T13:57:47.698Z,65.38
2023-03-12T14:00:39.805Z,66.18
2023-03-12T14:03:18.657Z,66.50
2023-03-12T14:05:50.837Z,66.03
2023-03-12T14:08:24.106Z,65.46
2023-03-12T14:11:15.461Z,65.82
2023-03-12T14:14:11.688Z,65.56
2023-03-12T14:16:50.678Z,66.92
2023-03-12T14:19:25.533Z,66.33
2023-03-12T14:21:56.934Z,66.61
2023-03-12T14:24:32.287Z,67.88
2023-03-12T14:27:01.421Z,67.78
2023-03-12T14:29:40.934Z,67.07
2023-03-12T14:32:17.142Z,67.32
2023-03-12T14:34:49.770Z,67.88
2023-03-12T14:37:20.197Z,68.20
2023-03-12T14:39:51.105Z,66.43
2023-03-12T14:42:47.947Z,66.54
2023-03-12T14:45:18.391Z,66.08
2023-03-12T14:47:53.174Z,66.75
2023-03-12T14:50:23.744Z,65.88
2023-03-12T14:52:50.599Z,66.44
2023-03-12T14:55:22.695Z,66.20
2023-03-12T14:57:49.681Z,66.83
2023-03-12T15:00:27.528Z,67.23
2023-03-12T15:02:57.207Z,67.25
2023-03-12T15:05:24.265Z,67.18
2023-03-12T15:07:56.458Z,67.68
2023-03-12T15:10:30.162Z,68.12
2023-03-12T15:13:00.892Z,67.85
2023-03-12T15:15:41.332Z,68.50
2023-03-12T15:18:15.881Z,68.68
2023-03-12T15:20:42.789Z,68.16
2023-03-12T15:23:12.963Z,68.43
2023-03-12T15:25:39.916Z,68.55
2023-03-12T15:28:15.164Z,68.94
2023-03-12T15:30:42.754Z,68.32
2023-03-12T15:33:24.444Z,69.38
2023-03-12T15:36:07.515Z,68.91
2023-03-12T15:38:38.143Z,68.41
2023-03-12T15:41:09.880Z,68.79
2023-03-12T15:43:37.635Z,67.89
2023-03-12T15:46:06.542Z,68.16
2023-03-12T15:48:38.420Z,67.77
2023-03-12T15:51:15.109Z,67.99
2023-03-12T15:53:41.550Z,68.51
2023-03-12T15:56:10.953Z,68.38
2023-03-12T15:58:40.122Z,68.47
2023-03-12T16:01:18.341Z,68.62
2023-03-12T16:03:45.818Z,69.29
2023-03-12T16:06:18.397Z,68.92
2023-03-12T16:08:48.532Z,68.44
2023-03-12T16:11:20.476Z,68.94
2023-03-12T16:13:49.710Z,68.81
2023-03-12T16:16:16.722Z,69.61
2023-03-12T16:18:43.800Z,69.51
2023-03-12T16:21:10.729Z,68.81
2023-03-12T16:23:37.923Z,68.63
2023-03-12T16:26:05.783Z,68.49
2023-03-12T16:28:35.135Z,67.88
2023-03-12T16:31:10.099Z,67.85
2023-03-12T16:33:36.847Z,68.68
2023-03-12T16:36:03.445Z,68.90
2023-03-12T16:38:29.905Z,69.30
2023-03-12T16:41:01.046Z,68.26
2023-03-12T16:43:29.992Z,68.69
2023-03-12T16:45:57.799Z,68.57
2023-03-12T16:48:25.099Z,68.41
2023-03-12T16:50:56.903Z,68.88
2023-03-12T16:53:23.961Z,68.86
2023-03-12T16:56:02.010Z,68.91
2023-03-12T16:58:29.342Z,69.73
2023-03-12T17:00:56.689Z,69.24
2023-03-12T17:03:33.292Z,69.22
2023-03-12T17:06:01.679Z,69.46
2023-03-12T17:08:28.203Z,69.29
2023-03-12T17:10:56.561Z,68.94
2023-03-12T17:13:30.016Z,69.70
2023-03-12T17:15:56.724Z,69.45
2023-03-12T17:18:23.558Z,69.64
2023-03-12T17:20:51.717Z,69.83
2023-03-12T17:23:22.642Z,69.07
2023-03-12T17:25:49.077Z,69.77
2023-03-12T17:28:16.073Z,70.15
2023-03-12T17:30:42.893Z,70.13
2023-03-12T17:33:16.505Z,70.13
2023-03-12T17:35:43.552Z,69.91
2023-03-12T17:38:11.118Z,70.14
2023-03-12T17:40:42.212Z,71.13
2023-03-12T17:43:08.824Z,69.99
2023-03-12T17:45:36.910Z,70.27
2023-03-12T17:48:03.967Z,70.58
2023-03-12T17:50:30.406Z,70.91
2023-03-12T17:52:56.880Z,70.93
2023-03-12T17:55:23.453Z,71.35
2023-03-12T17:57:50.481Z,71.58
2023-03-12T18:00:17.650Z,72.21
2023-03-12T18:02:44.210Z,72.04
2023-03-12T18:05:11.678Z,72.25
2023-03-12T18:07:40.028Z,72.27
2023-03-12T18:10:09.108Z,73.01
2023-03-12T18:12:37.911Z,72.88
2023-03-12T18:15:06.440Z,72.67
2023-03-12T18:17:32.893Z,72.18
2023-03-12T18:19:59.323Z,72.54
2023-03-12T18:22:25.654Z,72.58
2023-03-12T18:24:52.107Z,72.68
2023-03-12T18:27:20.836Z,74.06
2023-03-12T18:29:48.331Z,73.67
2023-03-12T18:32:14.721Z,73.81
2023-03-12T18:34:42.440Z,73.92
2023-03-12T18:37:09.116Z,73.61
2023-03-12T18:39:35.608Z,73.52
2023-03-12T18:42:02.171Z,73.83
2023-03-12T18:44:28.756Z,73.91
2023-03-12T18:46:55.258Z,74.43
2023-03-12T18:49:21.870Z,74.26
2023-03-12T18:51:54.508Z,74.59
2023-03-12T18:54:24.707Z,74.39
2023-03-12T18:56:54.340Z,74.93
2023-03-12T18:59:23.394Z,74.72
2023-03-12T19:01:49.899Z,74.63
2023-03-12T19:04:18.689Z,75.02
2023-03-12T19:06:51.190Z,75.07
2023-03-12T19:09:18.743Z,74.96
2023-03-12T19:11:47.867Z,74.95
2023-03-12T19:14:16.634Z,74.85
2023-03-12T19:16:43.336Z,74.99
2023-03-12T19:19:10.027Z,75.04
2023-03-12T19:21:36.507Z,75.56
2023-03-12T19:24:02.987Z,75.31
2023-03-12T19:26:29.538Z,76.41
2023-03-12T19:28:56.099Z,75.72
2023-03-12T19:31:22.868Z,75.52
2023-03-12T19:33:49.302Z,76.11
2023-03-12T19:36:15.799Z,77.00
2023-03-12T19:38:42.399Z,77.13
2023-03-12T19:41:11.136Z,76.24
2023-03-12T19:43:38.316Z,76.26
2023-03-12T19:46:05.049Z,76.76
2023-03-12T19:48:31.562Z,77.16
2023-03-12T19:50:58.179Z,76.93
2023-03-12T19:53:27.264Z,76.77
2023-03-12T19:55:56.568Z,76.94
2023-03-12T19:58:25.142Z,76.39
2023-03-12T20:00:51.670Z,76.48
2023-03-12T20:03:18.226Z,77.12
2023-03-12T20:05:45.766Z,77.05
2023-03-12T20:08:12.829Z,77.60
2023-03-12T20:10:39.338Z,77.62
2023-03-12T20:13:05.784Z,77.74
2023-03-12T20:15:32.318Z,77.90
2023-03-12T20:17:58.876Z,77.77
2023-03-12T20:20:25.721Z,77.36
2023-03-12T20:22:52.321Z,77.99
2023-03-12T20:25:18.884Z,78.21
2023-03-12T20:27:47.934Z,78.01
2023-03-12T20:30:16.850Z,78.18
2023-03-12T20:32:43.313Z,78.47
2023-03-12T20:35:10.454Z,78.45
2023-03-12T20:37:39.309Z,78.47
2023-03-12T20:40:08.809Z,78.67
2023-03-12T20:42:35.225Z,78.56
2023-03-12T20:45:04.633Z,78.71
2023-03-12T20:47:34.466Z,78.52
2023-03-12T20:50:03.524Z,78.46
2023-03-12T20:52:30.042Z,78.74
2023-03-12T20:54:56.507Z,78.73
2023-03-12T20:57:23.103Z,78.70
2023-03-12T20:59:49.559Z,78.50
2023-03-12T21:02:16.205Z,78.67
2023-03-12T21:04:45.844Z,79.13
2023-03-12T21:07:14.596Z,78.99
2023-03-12T21:09:41.095Z,79.13
2023-03-12T21:12:07.552Z,80.09
2023-03-12T21:14:34.289Z,79.79
2023-03-12T21:17:00.910Z,79.74
2023-03-12T21:19:30.595Z,80.03
2023-03-12T21:21:57.168Z,80.18
2023-03-12T21:24:25.810Z,80.44
2023-03-12T21:26:52.209Z,80.78
2023-03-12T21:29:18.799Z,81.19
2023-03-12T21:31:45.315Z,81.34
2023-03-12T21:34:11.756Z,81.22
2023-03-12T21:36:38.256Z,81.95
2023-03-12T21:39:04.621Z,82.48
2023-03-12T21:41:31.138Z,82.64
2023-03-12T21:44:01.617Z,82.00
2023-03-12T21:46:30.023Z,82.58
2023-03-12T21:48:56.887Z,82.69
2023-03-12T21:51:26.019Z,82.37
2023-03-12T21:53:59.284Z,82.25
2023-03-12T21:56:30.301Z,82.27
2023-03-12T21:58:57.459Z,82.58
2023-03-12T22:01:24.496Z,82.46
2023-03-12T22:03:53.551Z,82.67
2023-03-12T22:06:24.307Z,82.16
2023-03-12T22:08:52.228Z,83.06
2023-03-12T22:11:21.851Z,82.30
2023-03-12T22:13:48.590Z,82.93
2023-03-12T22:16:15.633Z,82.92
2023-03-12T22:18:44.330Z,83.32
2023-03-12T22:21:18.203Z,84.52
2023-03-12T22:23:47.780Z,83.97
2023-03-12T22:26:14.607Z,84.01
2023-03-12T22:28:41.500Z,84.86
2023-03-12T22:31:09.525Z,84.88
2023-03-12T22:33:36.991Z,85.05
2023-03-12T22:36:11.094Z,84.93
2023-03-12T22:38:38.573Z,84.72
2023-03-12T22:41:23.069Z,84.54
2023-03-12T22:43:51.724Z,85.58
2023-03-12T22:46:19.792Z,85.38
2023-03-12T22:48:47.600Z,85.35
2023-03-12T22:51:19.225Z,85.20
2023-03-12T22:53:45.690Z,85.69
2023-03-12T22:56:14.894Z,86.15
2023-03-12T22:58:41.706Z,85.87
2023-03-12T23:01:11.412Z,85.54
2023-03-12T23:03:39.691Z,84.66
2023-03-12T23:06:16.819Z,85.31
2023-03-12T23:08:45.260Z,85.08
2023-03-12T23:11:14.411Z,85.20
2023-03-12T23:13:44.554Z,84.74
2023-03-12T23:16:19.846Z,83.89
2023-03-12T23:18:47.028Z,84.84
2023-03-12T23:21:20.050Z,84.79
2023-03-12T23:23:49.872Z,84.21
2023-03-12T23:26:22.197Z,84.51
2023-03-12T23:28:48.661Z,84.74
2023-03-12T23:31:16.296Z,85.38
2023-03-12T23:33:43.177Z,84.72
2023-03-12T23:36:15.022Z,85.21
2023-03-12T23:38:49.063Z,84.81
2023-03-12T23:41:21.101Z,86.01
2023-03-12T23:43:47.793Z,85.23
2023-03-12T23:46:16.993Z,85.70
2023-03-12T23:48:45.401Z,85.43
2023-03-12T23:51:16.265Z,85.32
2023-03-12T23:53:45.336Z,85.29
2023-03-12T23:56:16.473Z,85.28
2023-03-12T23:58:43.827Z,85.06
